Ayers Rock, Australia
Current Conditions -  °F | °C
As of 11:00 PM on Monday 24 Nov 2014 (Local Time) from YAYE Reporting Station
Clear Clear  
Wind Chill: 84°   Ceiling: Unl
Heat Index: 84°   Visibility: 6mi
Dew Point: 45°   Wind: 12mph
Humidity: 25%   Direction: 160°SSE
Pressure: 30"   Gusts: NA
Location:  25.34°S, 131.06°E
Report Text: YAYE 241400Z AUTO 16010KT 9999 // NCD 29/07 Q1016
Loading
Personal Weather Stations






























Interactive Weather Map New forecast layout! Learn more

10-Day Weather Forecast

Advertisements
Track Severe Weather on mobile